sensor_id;sensor_type;location;lat;lon;timestamp;temperature;humidity
5802;DHT22;2927;49.366;8.530;2023-10-31T00:02:24;11.60;99.90
5802;DHT22;2927;49.366;8.530;2023-10-31T00:04:49;11.60;99.90
5802;DHT22;2927;49.366;8.530;2023-10-31T00:07:15;11.60;99.90
5802;DHT22;2927;49.366;8.530;2023-10-31T00:09:40;11.50;99.90
5802;DHT22;2927;49.366;8.530;2023-10-31T00:12:06;11.50;99.90
5802;DHT22;2927;49.366;8.530;2023-10-31T00:14:32;11.40;99.90
5802;DHT22;2927;49.366;8.530;2023-10-31T00:16:58;11.40;99.90
5802;DHT22;2927;49.366;8.530;2023-10-31T00:19:24;11.30;99.90
5802;DHT22;2927;49.366;8.530;2023-10-31T00:21:49;11.30;99.90
5802;DHT22;2927;49.366;8.530;2023-10-31T00:24:15;11.30;99.90
5802;DHT22;2927;49.366;8.530;2023-10-31T00:26:40;11.30;99.90
5802;DHT22;2927;49.366;8.530;2023-10-31T00:29:06;11.20;99.90
5802;DHT22;2927;49.366;8.530;2023-10-31T00:31:31;11.20;99.90
5802;DHT22;2927;49.366;8.530;2023-10-31T00:33:57;11.10;99.90
5802;DHT22;2927;49.366;8.530;2023-10-31T00:36:22;11.10;99.90
5802;DHT22;2927;49.366;8.530;2023-10-31T00:38:48;11.10;99.90
5802;DHT22;2927;49.366;8.530;2023-10-31T00:41:13;11.00;99.90
5802;DHT22;2927;49.366;8.530;2023-10-31T00:43:39;11.00;99.90
5802;DHT22;2927;49.366;8.530;2023-10-31T00:46:04;11.00;99.90
5802;DHT22;2927;49.366;8.530;2023-10-31T00:48:30;11.00;99.90
5802;DHT22;2927;49.366;8.530;2023-10-31T00:51:02;11.00;99.90
5802;DHT22;2927;49.366;8.530;2023-10-31T00:53:28;11.00;99.90
5802;DHT22;2927;49.366;8.530;2023-10-31T00:55:53;11.00;99.90
5802;DHT22;2927;49.366;8.530;2023-10-31T00:58:19;10.90;99.90
5802;DHT22;2927;49.366;8.530;2023-10-31T01:00:44;10.90;99.90
5802;DHT22;2927;49.366;8.530;2023-10-31T01:03:10;10.90;99.90
5802;DHT22;2927;49.366;8.530;2023-10-31T01:05:35;10.90;99.90
5802;DHT22;2927;49.366;8.530;2023-10-31T01:08:01;10.80;99.90
5802;DHT22;2927;49.366;8.530;2023-10-31T01:10:26;10.80;99.90
5802;DHT22;2927;49.366;8.530;2023-10-31T01:12:52;10.80;99.90
5802;DHT22;2927;49.366;8.530;2023-10-31T01:15:17;10.80;99.90
5802;DHT22;2927;49.366;8.530;2023-10-31T01:17:43;10.80;99.90
5802;DHT22;2927;49.366;8.530;2023-10-31T01:20:09;10.80;99.90
5802;DHT22;2927;49.366;8.530;2023-10-31T01:22:35;10.70;99.90
5802;DHT22;2927;49.366;8.530;2023-10-31T01:25:01;10.70;99.90
5802;DHT22;2927;49.366;8.530;2023-10-31T01:27:27;10.70;99.90
5802;DHT22;2927;49.366;8.530;2023-10-31T01:29:52;10.60;99.90
5802;DHT22;2927;49.366;8.530;2023-10-31T01:32:19;10.60;99.90
5802;DHT22;2927;49.366;8.530;2023-10-31T01:34:44;10.60;99.90
5802;DHT22;2927;49.366;8.530;2023-10-31T01:37:10;10.60;99.90
5802;DHT22;2927;49.366;8.530;2023-10-31T01:39:36;10.60;99.90
5802;DHT22;2927;49.366;8.530;2023-10-31T01:42:02;10.60;99.90
5802;DHT22;2927;49.366;8.530;2023-10-31T01:44:27;10.60;99.90
5802;DHT22;2927;49.366;8.530;2023-10-31T01:46:53;10.60;99.90
5802;DHT22;2927;49.366;8.530;2023-10-31T01:49:18;10.60;99.90
5802;DHT22;2927;49.366;8.530;2023-10-31T01:51:45;10.50;99.90
5802;DHT22;2927;49.366;8.530;2023-10-31T01:54:12;10.50;99.90
5802;DHT22;2927;49.366;8.530;2023-10-31T01:56:38;10.50;99.90
5802;DHT22;2927;49.366;8.530;2023-10-31T01:59:07;10.50;99.90
5802;DHT22;2927;49.366;8.530;2023-10-31T02:01:37;10.50;99.90
5802;DHT22;2927;49.366;8.530;2023-10-31T02:04:03;10.50;99.90
5802;DHT22;2927;49.366;8.530;2023-10-31T02:06:29;10.50;99.90
5802;DHT22;2927;49.366;8.530;2023-10-31T02:08:56;10.50;99.90
5802;DHT22;2927;49.366;8.530;2023-10-31T02:11:21;10.50;99.90
5802;DHT22;2927;49.366;8.530;2023-10-31T02:13:47;10.50;99.90
5802;DHT22;2927;49.366;8.530;2023-10-31T02:16:12;10.50;99.90
5802;DHT22;2927;49.366;8.530;2023-10-31T02:18:38;10.50;99.90
5802;DHT22;2927;49.366;8.530;2023-10-31T02:21:03;10.40;99.90
5802;DHT22;2927;49.366;8.530;2023-10-31T02:23:29;10.40;99.90
5802;DHT22;2927;49.366;8.530;2023-10-31T02:25:54;10.40;99.90
5802;DHT22;2927;49.366;8.530;2023-10-31T02:28:20;10.40;99.90
5802;DHT22;2927;49.366;8.530;2023-10-31T02:30:46;10.50;99.90
5802;DHT22;2927;49.366;8.530;2023-10-31T02:33:12;10.50;99.90
5802;DHT22;2927;49.366;8.530;2023-10-31T02:35:37;10.50;99.90
5802;DHT22;2927;49.366;8.530;2023-10-31T02:38:03;10.50;99.90
5802;DHT22;2927;49.366;8.530;2023-10-31T02:40:28;10.50;99.90
5802;DHT22;2927;49.366;8.530;2023-10-31T02:42:54;10.50;99.90
5802;DHT22;2927;49.366;8.530;2023-10-31T02:45:19;10.40;99.90
5802;DHT22;2927;49.366;8.530;2023-10-31T02:47:45;10.50;99.90
5802;DHT22;2927;49.366;8.530;2023-10-31T02:50:11;10.50;99.90
5802;DHT22;2927;49.366;8.530;2023-10-31T02:52:37;10.50;99.90
5802;DHT22;2927;49.366;8.530;2023-10-31T02:55:03;10.50;99.90
5802;DHT22;2927;49.366;8.530;2023-10-31T02:57:28;10.50;99.90
5802;DHT22;2927;49.366;8.530;2023-10-31T02:59:54;10.50;99.90
5802;DHT22;2927;49.366;8.530;2023-10-31T03:02:19;10.50;99.90
5802;DHT22;2927;49.366;8.530;2023-10-31T03:04:45;10.40;99.90
5802;DHT22;2927;49.366;8.530;2023-10-31T03:07:10;10.40;99.90
5802;DHT22;2927;49.366;8.530;2023-10-31T03:09:36;10.30;99.90
5802;DHT22;2927;49.366;8.530;2023-10-31T03:12:01;10.30;99.90
5802;DHT22;2927;49.366;8.530;2023-10-31T03:14:27;10.30;99.90
5802;DHT22;2927;49.366;8.530;2023-10-31T03:16:53;10.30;99.90
5802;DHT22;2927;49.366;8.530;2023-10-31T03:19:18;10.30;99.90
5802;DHT22;2927;49.366;8.530;2023-10-31T03:21:44;10.30;99.90
5802;DHT22;2927;49.366;8.530;2023-10-31T03:24:09;10.20;99.90
5802;DHT22;2927;49.366;8.530;2023-10-31T03:26:35;10.20;99.90
5802;DHT22;2927;49.366;8.530;2023-10-31T03:29:01;10.20;99.90
5802;DHT22;2927;49.366;8.530;2023-10-31T03:31:26;10.10;99.90
5802;DHT22;2927;49.366;8.530;2023-10-31T03:33:52;10.10;99.90
5802;DHT22;2927;49.366;8.530;2023-10-31T03:36:18;10.00;99.90
5802;DHT22;2927;49.366;8.530;2023-10-31T03:38:44;9.90;99.90
5802;DHT22;2927;49.366;8.530;2023-10-31T03:41:09;9.90;99.90
5802;DHT22;2927;49.366;8.530;2023-10-31T03:43:35;9.90;99.90
5802;DHT22;2927;49.366;8.530;2023-10-31T03:46:01;9.90;99.90
5802;DHT22;2927;49.366;8.530;2023-10-31T03:48:26;9.90;99.90
5802;DHT22;2927;49.366;8.530;2023-10-31T03:50:52;10.00;99.90
5802;DHT22;2927;49.366;8.530;2023-10-31T03:53:18;10.00;99.90
5802;DHT22;2927;49.366;8.530;2023-10-31T03:55:43;10.10;99.90
5802;DHT22;2927;49.366;8.530;2023-10-31T03:58:09;10.10;99.90
5802;DHT22;2927;49.366;8.530;2023-10-31T04:00:34;10.20;99.90
5802;DHT22;2927;49.366;8.530;2023-10-31T04:03:00;10.20;99.90
5802;DHT22;2927;49.366;8.530;2023-10-31T04:05:26;10.30;99.90
5802;DHT22;2927;49.366;8.530;2023-10-31T04:07:51;10.30;99.90
5802;DHT22;2927;49.366;8.530;2023-10-31T04:10:18;10.40;99.90
5802;DHT22;2927;49.366;8.530;2023-10-31T04:12:44;10.40;99.90
5802;DHT22;2927;49.366;8.530;2023-10-31T04:15:09;10.40;99.90
5802;DHT22;2927;49.366;8.530;2023-10-31T04:17:35;10.40;99.90
5802;DHT22;2927;49.366;8.530;2023-10-31T04:20:01;10.40;99.90
5802;DHT22;2927;49.366;8.530;2023-10-31T04:22:27;10.40;99.90
5802;DHT22;2927;49.366;8.530;2023-10-31T04:24:53;10.40;99.90
5802;DHT22;2927;49.366;8.530;2023-10-31T04:27:18;10.40;99.90
5802;DHT22;2927;49.366;8.530;2023-10-31T04:29:44;10.40;99.90
5802;DHT22;2927;49.366;8.530;2023-10-31T04:32:10;10.40;99.90
5802;DHT22;2927;49.366;8.530;2023-10-31T04:34:36;10.40;99.90
5802;DHT22;2927;49.366;8.530;2023-10-31T04:37:01;10.50;99.90
5802;DHT22;2927;49.366;8.530;2023-10-31T04:39:27;10.40;99.90
5802;DHT22;2927;49.366;8.530;2023-10-31T04:41:53;10.40;99.90
5802;DHT22;2927;49.366;8.530;2023-10-31T04:44:18;10.40;99.90
5802;DHT22;2927;49.366;8.530;2023-10-31T04:46:44;10.50;99.90
5802;DHT22;2927;49.366;8.530;2023-10-31T04:49:09;10.50;99.90
5802;DHT22;2927;49.366;8.530;2023-10-31T04:51:38;10.50;99.90
5802;DHT22;2927;49.366;8.530;2023-10-31T04:54:04;10.50;99.90
5802;DHT22;2927;49.366;8.530;2023-10-31T04:56:30;10.50;99.90
5802;DHT22;2927;49.366;8.530;2023-10-31T04:58:56;10.40;99.90
5802;DHT22;2927;49.366;8.530;2023-10-31T05:01:21;10.40;99.90
5802;DHT22;2927;49.366;8.530;2023-10-31T05:03:47;10.40;99.90
5802;DHT22;2927;49.366;8.530;2023-10-31T05:06:12;10.40;99.90
5802;DHT22;2927;49.366;8.530;2023-10-31T05:08:38;10.40;99.90
5802;DHT22;2927;49.366;8.530;2023-10-31T05:11:04;10.40;99.90
5802;DHT22;2927;49.366;8.530;2023-10-31T05:13:29;10.40;99.90
5802;DHT22;2927;49.366;8.530;2023-10-31T05:15:55;10.50;99.90
5802;DHT22;2927;49.366;8.530;2023-10-31T05:18:21;10.50;99.90
5802;DHT22;2927;49.366;8.530;2023-10-31T05:20:46;10.50;99.90
5802;DHT22;2927;49.366;8.530;2023-10-31T05:23:12;10.50;99.90
5802;DHT22;2927;49.366;8.530;2023-10-31T05:25:38;10.50;99.90
5802;DHT22;2927;49.366;8.530;2023-10-31T05:28:04;10.50;99.90
5802;DHT22;2927;49.366;8.530;2023-10-31T05:30:30;10.50;99.90
5802;DHT22;2927;49.366;8.530;2023-10-31T05:32:55;10.50;99.90
5802;DHT22;2927;49.366;8.530;2023-10-31T05:35:21;10.50;99.90
5802;DHT22;2927;49.366;8.530;2023-10-31T05:37:47;10.50;99.90
5802;DHT22;2927;49.366;8.530;2023-10-31T05:40:13;10.50;99.90
5802;DHT22;2927;49.366;8.530;2023-10-31T05:42:39;10.40;99.90
5802;DHT22;2927;49.366;8.530;2023-10-31T05:45:05;10.40;99.90
5802;DHT22;2927;49.366;8.530;2023-10-31T05:47:31;10.40;99.90
5802;DHT22;2927;49.366;8.530;2023-10-31T05:49:58;10.40;99.90
5802;DHT22;2927;49.366;8.530;2023-10-31T05:52:28;10.40;99.90
5802;DHT22;2927;49.366;8.530;2023-10-31T05:54:53;10.30;99.90
5802;DHT22;2927;49.366;8.530;2023-10-31T05:57:19;10.30;99.90
5802;DHT22;2927;49.366;8.530;2023-10-31T05:59:45;10.30;99.90
5802;DHT22;2927;49.366;8.530;2023-10-31T06:02:10;10.30;99.90
5802;DHT22;2927;49.366;8.530;2023-10-31T06:04:36;10.30;99.90
5802;DHT22;2927;49.366;8.530;2023-10-31T06:07:01;10.30;99.90
5802;DHT22;2927;49.366;8.530;2023-10-31T06:09:28;10.40;99.90
5802;DHT22;2927;49.366;8.530;2023-10-31T06:11:53;10.40;99.90
5802;DHT22;2927;49.366;8.530;2023-10-31T06:14:19;10.30;99.90
5802;DHT22;2927;49.366;8.530;2023-10-31T06:16:44;10.40;99.90
5802;DHT22;2927;49.366;8.530;2023-10-31T06:19:10;10.30;99.90
5802;DHT22;2927;49.366;8.530;2023-10-31T06:21:35;10.40;99.90
5802;DHT22;2927;49.366;8.530;2023-10-31T06:24:03;10.40;99.90
5802;DHT22;2927;49.366;8.530;2023-10-31T06:26:28;10.40;99.90
5802;DHT22;2927;49.366;8.530;2023-10-31T06:28:54;10.40;99.90
5802;DHT22;2927;49.366;8.530;2023-10-31T06:31:20;10.40;99.90
5802;DHT22;2927;49.366;8.530;2023-10-31T06:33:45;10.40;99.90
5802;DHT22;2927;49.366;8.530;2023-10-31T06:36:11;10.40;99.90
5802;DHT22;2927;49.366;8.530;2023-10-31T06:38:36;10.40;99.90
5802;DHT22;2927;49.366;8.530;2023-10-31T06:41:02;10.30;99.90
5802;DHT22;2927;49.366;8.530;2023-10-31T06:43:28;10.30;99.90
5802;DHT22;2927;49.366;8.530;2023-10-31T06:45:55;10.30;99.90
5802;DHT22;2927;49.366;8.530;2023-10-31T06:48:20;10.30;99.90
5802;DHT22;2927;49.366;8.530;2023-10-31T06:50:46;10.30;99.90
5802;DHT22;2927;49.366;8.530;2023-10-31T06:53:11;10.30;99.90
5802;DHT22;2927;49.366;8.530;2023-10-31T06:55:37;10.30;99.90
5802;DHT22;2927;49.366;8.530;2023-10-31T06:58:02;10.30;99.90
5802;DHT22;2927;49.366;8.530;2023-10-31T07:00:28;10.40;99.90
5802;DHT22;2927;49.366;8.530;2023-10-31T07:02:54;10.40;99.90
5802;DHT22;2927;49.366;8.530;2023-10-31T07:05:19;10.40;99.90
5802;DHT22;2927;49.366;8.530;2023-10-31T07:07:48;10.40;99.90
5802;DHT22;2927;49.366;8.530;2023-10-31T07:10:13;10.40;99.90
5802;DHT22;2927;49.366;8.530;2023-10-31T07:12:39;10.40;99.90
5802;DHT22;2927;49.366;8.530;2023-10-31T07:15:05;10.40;99.90
5802;DHT22;2927;49.366;8.530;2023-10-31T07:17:30;10.40;99.90
5802;DHT22;2927;49.366;8.530;2023-10-31T07:19:56;10.50;99.90
5802;DHT22;2927;49.366;8.530;2023-10-31T07:22:22;10.50;99.90
5802;DHT22;2927;49.366;8.530;2023-10-31T07:24:50;10.50;99.90
5802;DHT22;2927;49.366;8.530;2023-10-31T07:27:15;10.50;99.90
5802;DHT22;2927;49.366;8.530;2023-10-31T07:29:41;10.60;99.90
5802;DHT22;2927;49.366;8.530;2023-10-31T07:32:08;10.60;99.90
5802;DHT22;2927;49.366;8.530;2023-10-31T07:34:34;10.60;99.90
5802;DHT22;2927;49.366;8.530;2023-10-31T07:36:59;10.70;99.90
5802;DHT22;2927;49.366;8.530;2023-10-31T07:39:25;10.70;99.90
5802;DHT22;2927;49.366;8.530;2023-10-31T07:41:51;10.80;99.90
5802;DHT22;2927;49.366;8.530;2023-10-31T07:44:17;10.80;99.90
5802;DHT22;2927;49.366;8.530;2023-10-31T07:46:42;10.80;99.90
5802;DHT22;2927;49.366;8.530;2023-10-31T07:49:08;10.80;99.90
5802;DHT22;2927;49.366;8.530;2023-10-31T07:51:33;10.90;99.90
5802;DHT22;2927;49.366;8.530;2023-10-31T07:53:59;10.90;99.90
5802;DHT22;2927;49.366;8.530;2023-10-31T07:56:26;10.90;99.90
5802;DHT22;2927;49.366;8.530;2023-10-31T07:58:51;10.90;99.90
5802;DHT22;2927;49.366;8.530;2023-10-31T08:01:18;11.00;99.90
5802;DHT22;2927;49.366;8.530;2023-10-31T08:03:45;11.10;99.90
5802;DHT22;2927;49.366;8.530;2023-10-31T08:06:11;11.20;99.90
5802;DHT22;2927;49.366;8.530;2023-10-31T08:08:36;11.30;99.90
5802;DHT22;2927;49.366;8.530;2023-10-31T08:11:02;11.30;99.90
5802;DHT22;2927;49.366;8.530;2023-10-31T08:13:29;11.40;99.90
5802;DHT22;2927;49.366;8.530;2023-10-31T08:15:55;11.50;99.90
5802;DHT22;2927;49.366;8.530;2023-10-31T08:18:22;11.50;99.90
5802;DHT22;2927;49.366;8.530;2023-10-31T08:20:48;11.60;99.90
5802;DHT22;2927;49.366;8.530;2023-10-31T08:23:16;11.60;99.90
5802;DHT22;2927;49.366;8.530;2023-10-31T08:25:42;11.50;99.90
5802;DHT22;2927;49.366;8.530;2023-10-31T08:28:08;11.50;99.90
5802;DHT22;2927;49.366;8.530;2023-10-31T08:30:33;11.40;99.90
5802;DHT22;2927;49.366;8.530;2023-10-31T08:32:59;11.40;99.90
5802;DHT22;2927;49.366;8.530;2023-10-31T08:35:24;11.50;99.90
5802;DHT22;2927;49.366;8.530;2023-10-31T08:37:50;11.60;99.90
5802;DHT22;2927;49.366;8.530;2023-10-31T08:40:15;11.60;99.90
5802;DHT22;2927;49.366;8.530;2023-10-31T08:42:41;11.70;99.90
5802;DHT22;2927;49.366;8.530;2023-10-31T08:45:07;11.80;99.90
5802;DHT22;2927;49.366;8.530;2023-10-31T08:47:33;11.90;99.90
5802;DHT22;2927;49.366;8.530;2023-10-31T08:49:59;12.00;99.90
5802;DHT22;2927;49.366;8.530;2023-10-31T08:52:24;12.10;99.90
5802;DHT22;2927;49.366;8.530;2023-10-31T08:54:50;12.10;99.90
5802;DHT22;2927;49.366;8.530;2023-10-31T08:57:15;12.20;99.90
5802;DHT22;2927;49.366;8.530;2023-10-31T08:59:41;12.40;99.90
5802;DHT22;2927;49.366;8.530;2023-10-31T09:02:06;12.50;68.10
5802;DHT22;2927;49.366;8.530;2023-10-31T09:04:32;12.70;51.10
5802;DHT22;2927;49.366;8.530;2023-10-31T09:06:57;12.80;63.80
5802;DHT22;2927;49.366;8.530;2023-10-31T09:09:23;12.90;1.00
5802;DHT22;2927;49.366;8.530;2023-10-31T09:11:48;13.00;1.00
5802;DHT22;2927;49.366;8.530;2023-10-31T09:14:14;13.20;1.00
5802;DHT22;2927;49.366;8.530;2023-10-31T09:16:39;13.80;1.00
5802;DHT22;2927;49.366;8.530;2023-10-31T09:19:05;14.30;99.90
5802;DHT22;2927;49.366;8.530;2023-10-31T09:21:31;14.60;1.00
5802;DHT22;2927;49.366;8.530;2023-10-31T09:23:56;14.90;1.00
5802;DHT22;2927;49.366;8.530;2023-10-31T09:26:22;15.00;1.00
5802;DHT22;2927;49.366;8.530;2023-10-31T09:28:47;15.00;1.00
5802;DHT22;2927;49.366;8.530;2023-10-31T09:31:18;14.80;1.00
5802;DHT22;2927;49.366;8.530;2023-10-31T09:33:45;14.80;1.00
5802;DHT22;2927;49.366;8.530;2023-10-31T09:36:11;14.70;1.00
5802;DHT22;2927;49.366;8.530;2023-10-31T09:38:36;14.80;1.00
5802;DHT22;2927;49.366;8.530;2023-10-31T09:41:02;14.70;1.00
5802;DHT22;2927;49.366;8.530;2023-10-31T09:43:28;14.70;1.00
5802;DHT22;2927;49.366;8.530;2023-10-31T09:45:54;14.90;1.00
5802;DHT22;2927;49.366;8.530;2023-10-31T09:48:21;14.80;1.00
5802;DHT22;2927;49.366;8.530;2023-10-31T09:50:46;14.70;1.00
5802;DHT22;2927;49.366;8.530;2023-10-31T09:53:14;14.90;99.90
5802;DHT22;2927;49.366;8.530;2023-10-31T09:55:39;14.90;1.00
5802;DHT22;2927;49.366;8.530;2023-10-31T09:58:05;15.00;95.60
5802;DHT22;2927;49.366;8.530;2023-10-31T10:00:30;15.10;1.00
5802;DHT22;2927;49.366;8.530;2023-10-31T10:02:57;15.10;8.20
5802;DHT22;2927;49.366;8.530;2023-10-31T10:05:23;15.10;1.00
5802;DHT22;2927;49.366;8.530;2023-10-31T10:07:50;15.10;99.90
5802;DHT22;2927;49.366;8.530;2023-10-31T10:10:17;15.00;99.90
5802;DHT22;2927;49.366;8.530;2023-10-31T10:12:43;15.20;99.90
5802;DHT22;2927;49.366;8.530;2023-10-31T10:15:10;15.30;1.00
5802;DHT22;2927;49.366;8.530;2023-10-31T10:17:37;15.40;1.00
5802;DHT22;2927;49.366;8.530;2023-10-31T10:20:09;15.60;1.00
5802;DHT22;2927;49.366;8.530;2023-10-31T10:22:42;15.50;99.90
5802;DHT22;2927;49.366;8.530;2023-10-31T10:25:09;15.20;1.00
5802;DHT22;2927;49.366;8.530;2023-10-31T10:27:37;15.00;1.00
5802;DHT22;2927;49.366;8.530;2023-10-31T10:30:03;15.00;1.00
5802;DHT22;2927;49.366;8.530;2023-10-31T10:32:29;14.90;1.00
5802;DHT22;2927;49.366;8.530;2023-10-31T10:34:55;14.90;99.90
5802;DHT22;2927;49.366;8.530;2023-10-31T10:37:21;14.90;1.00
5802;DHT22;2927;49.366;8.530;2023-10-31T10:39:48;14.90;1.00
5802;DHT22;2927;49.366;8.530;2023-10-31T10:42:19;14.90;31.50
5802;DHT22;2927;49.366;8.530;2023-10-31T10:44:47;15.00;1.00
5802;DHT22;2927;49.366;8.530;2023-10-31T10:47:17;15.00;1.00
5802;DHT22;2927;49.366;8.530;2023-10-31T10:49:44;14.90;99.90
5802;DHT22;2927;49.366;8.530;2023-10-31T10:52:23;15.00;1.00
5802;DHT22;2927;49.366;8.530;2023-10-31T10:54:54;15.00;99.90
5802;DHT22;2927;49.366;8.530;2023-10-31T11:00:03;14.90;1.00
5802;DHT22;2927;49.366;8.530;2023-10-31T11:02:30;14.80;39.90
5802;DHT22;2927;49.366;8.530;2023-10-31T11:04:56;14.70;1.00
5802;DHT22;2927;49.366;8.530;2023-10-31T11:07:24;14.60;1.00
5802;DHT22;2927;49.366;8.530;2023-10-31T11:09:51;14.50;1.00
5802;DHT22;2927;49.366;8.530;2023-10-31T11:12:18;14.50;99.90
5802;DHT22;2927;49.366;8.530;2023-10-31T11:14:46;14.50;1.00
5802;DHT22;2927;49.366;8.530;2023-10-31T11:17:27;14.50;1.00
5802;DHT22;2927;49.366;8.530;2023-10-31T11:19:54;14.50;1.00
5802;DHT22;2927;49.366;8.530;2023-10-31T11:22:20;14.60;99.90
5802;DHT22;2927;49.366;8.530;2023-10-31T11:24:49;14.90;99.90
5802;DHT22;2927;49.366;8.530;2023-10-31T11:27:16;15.20;99.90
5802;DHT22;2927;49.366;8.530;2023-10-31T11:29:42;15.40;99.90
5802;DHT22;2927;49.366;8.530;2023-10-31T11:32:09;15.30;1.00
5802;DHT22;2927;49.366;8.530;2023-10-31T11:34:37;15.30;1.00
5802;DHT22;2927;49.366;8.530;2023-10-31T11:37:23;15.40;99.90
5802;DHT22;2927;49.366;8.530;2023-10-31T11:42:57;15.50;99.90
5802;DHT22;2927;49.366;8.530;2023-10-31T11:45:42;15.70;99.90
5802;DHT22;2927;49.366;8.530;2023-10-31T11:48:09;15.70;1.00
5802;DHT22;2927;49.366;8.530;2023-10-31T11:50:37;15.80;99.90
5802;DHT22;2927;49.366;8.530;2023-10-31T11:53:08;15.60;1.00
5802;DHT22;2927;49.366;8.530;2023-10-31T11:55:43;15.50;1.00
5802;DHT22;2927;49.366;8.530;2023-10-31T11:58:26;15.50;48.80
5802;DHT22;2927;49.366;8.530;2023-10-31T12:00:56;15.60;99.90
5802;DHT22;2927;49.366;8.530;2023-10-31T12:03:25;15.80;1.00
5802;DHT22;2927;49.366;8.530;2023-10-31T12:05:56;15.60;1.00
5802;DHT22;2927;49.366;8.530;2023-10-31T12:08:43;15.60;1.00
5802;DHT22;2927;49.366;8.530;2023-10-31T12:11:20;15.50;1.00
5802;DHT22;2927;49.366;8.530;2023-10-31T12:13:58;15.60;1.00
5802;DHT22;2927;49.366;8.530;2023-10-31T12:16:30;15.50;1.00
5802;DHT22;2927;49.366;8.530;2023-10-31T12:21:39;15.40;99.90
5802;DHT22;2927;49.366;8.530;2023-10-31T12:24:07;15.40;1.00
5802;DHT22;2927;49.366;8.530;2023-10-31T12:26:34;15.40;1.00
5802;DHT22;2927;49.366;8.530;2023-10-31T12:29:08;15.50;99.90
5802;DHT22;2927;49.366;8.530;2023-10-31T12:31:33;15.50;1.00
5802;DHT22;2927;49.366;8.530;2023-10-31T12:34:07;15.50;1.00
5802;DHT22;2927;49.366;8.530;2023-10-31T12:36:34;15.60;1.00
5802;DHT22;2927;49.366;8.530;2023-10-31T12:39:01;15.70;99.90
5802;DHT22;2927;49.366;8.530;2023-10-31T12:41:27;15.90;1.00
5802;DHT22;2927;49.366;8.530;2023-10-31T12:43:53;16.00;99.90
5802;DHT22;2927;49.366;8.530;2023-10-31T12:46:29;16.10;1.00
5802;DHT22;2927;49.366;8.530;2023-10-31T12:48:55;15.90;1.00
5802;DHT22;2927;49.366;8.530;2023-10-31T12:51:21;15.70;99.90
5802;DHT22;2927;49.366;8.530;2023-10-31T12:53:53;15.60;99.90
5802;DHT22;2927;49.366;8.530;2023-10-31T12:56:41;15.50;1.00
5802;DHT22;2927;49.366;8.530;2023-10-31T12:59:10;15.40;1.00
5802;DHT22;2927;49.366;8.530;2023-10-31T13:01:45;15.40;73.90
5802;DHT22;2927;49.366;8.530;2023-10-31T13:04:10;15.60;99.90
5802;DHT22;2927;49.366;8.530;2023-10-31T13:06:37;15.80;1.00
5802;DHT22;2927;49.366;8.530;2023-10-31T13:09:03;16.10;1.00
5802;DHT22;2927;49.366;8.530;2023-10-31T13:11:32;16.20;1.00
5802;DHT22;2927;49.366;8.530;2023-10-31T13:13:57;16.00;1.00
5802;DHT22;2927;49.366;8.530;2023-10-31T13:16:24;15.70;1.00
5802;DHT22;2927;49.366;8.530;2023-10-31T13:18:52;15.70;1.00
5802;DHT22;2927;49.366;8.530;2023-10-31T13:21:18;15.60;1.00
5802;DHT22;2927;49.366;8.530;2023-10-31T13:23:44;15.50;1.00
5802;DHT22;2927;49.366;8.530;2023-10-31T13:26:11;15.50;1.00
5802;DHT22;2927;49.366;8.530;2023-10-31T13:28:37;15.40;1.00
5802;DHT22;2927;49.366;8.530;2023-10-31T13:31:05;15.30;1.00
5802;DHT22;2927;49.366;8.530;2023-10-31T13:33:31;15.10;1.00
5802;DHT22;2927;49.366;8.530;2023-10-31T13:35:56;14.90;1.00
5802;DHT22;2927;49.366;8.530;2023-10-31T13:38:22;14.70;99.90
5802;DHT22;2927;49.366;8.530;2023-10-31T13:40:47;14.60;99.90
5802;DHT22;2927;49.366;8.530;2023-10-31T13:43:13;14.60;1.00
5802;DHT22;2927;49.366;8.530;2023-10-31T13:45:38;14.60;1.00
5802;DHT22;2927;49.366;8.530;2023-10-31T13:48:04;14.50;1.00
5802;DHT22;2927;49.366;8.530;2023-10-31T13:50:30;14.60;1.00
5802;DHT22;2927;49.366;8.530;2023-10-31T13:52:56;14.70;1.00
5802;DHT22;2927;49.366;8.530;2023-10-31T13:55:21;14.70;1.00
5802;DHT22;2927;49.366;8.530;2023-10-31T13:57:49;14.70;99.90
5802;DHT22;2927;49.366;8.530;2023-10-31T14:00:15;14.80;99.90
5802;DHT22;2927;49.366;8.530;2023-10-31T14:02:41;14.80;99.90
5802;DHT22;2927;49.366;8.530;2023-10-31T14:05:06;14.80;1.00
5802;DHT22;2927;49.366;8.530;2023-10-31T14:07:32;14.80;99.90
5802;DHT22;2927;49.366;8.530;2023-10-31T14:09:58;14.80;99.90
5802;DHT22;2927;49.366;8.530;2023-10-31T14:12:24;14.70;1.00
5802;DHT22;2927;49.366;8.530;2023-10-31T14:14:51;14.70;1.00
5802;DHT22;2927;49.366;8.530;2023-10-31T14:17:16;14.60;1.00
5802;DHT22;2927;49.366;8.530;2023-10-31T14:19:42;14.60;1.00
5802;DHT22;2927;49.366;8.530;2023-10-31T14:22:08;14.50;1.00
5802;DHT22;2927;49.366;8.530;2023-10-31T14:24:34;14.40;99.90
5802;DHT22;2927;49.366;8.530;2023-10-31T14:27:00;14.30;1.00
5802;DHT22;2927;49.366;8.530;2023-10-31T14:29:26;14.20;1.00
5802;DHT22;2927;49.366;8.530;2023-10-31T14:31:52;14.10;1.00
5802;DHT22;2927;49.366;8.530;2023-10-31T14:34:19;14.00;1.00
5802;DHT22;2927;49.366;8.530;2023-10-31T14:36:46;13.90;1.00
5802;DHT22;2927;49.366;8.530;2023-10-31T14:39:11;13.80;1.00
5802;DHT22;2927;49.366;8.530;2023-10-31T14:41:38;13.80;49.90
5802;DHT22;2927;49.366;8.530;2023-10-31T14:44:04;13.80;99.90
5802;DHT22;2927;49.366;8.530;2023-10-31T14:46:30;13.70;1.00
5802;DHT22;2927;49.366;8.530;2023-10-31T14:48:57;13.60;1.00
5802;DHT22;2927;49.366;8.530;2023-10-31T14:51:23;13.50;1.00
5802;DHT22;2927;49.366;8.530;2023-10-31T14:53:48;13.40;1.00
5802;DHT22;2927;49.366;8.530;2023-10-31T14:56:14;13.30;99.90
5802;DHT22;2927;49.366;8.530;2023-10-31T14:58:39;13.30;1.00
5802;DHT22;2927;49.366;8.530;2023-10-31T15:01:05;13.20;1.00
5802;DHT22;2927;49.366;8.530;2023-10-31T15:03:31;13.10;93.60
5802;DHT22;2927;49.366;8.530;2023-10-31T15:05:59;13.00;1.00
5802;DHT22;2927;49.366;8.530;2023-10-31T15:08:25;13.00;1.00
5802;DHT22;2927;49.366;8.530;2023-10-31T15:10:52;12.90;1.00
5802;DHT22;2927;49.366;8.530;2023-10-31T15:13:18;12.80;4.40
5802;DHT22;2927;49.366;8.530;2023-10-31T15:15:43;12.80;99.90
5802;DHT22;2927;49.366;8.530;2023-10-31T15:18:09;12.70;99.90
5802;DHT22;2927;49.366;8.530;2023-10-31T15:20:35;12.70;99.90
5802;DHT22;2927;49.366;8.530;2023-10-31T15:23:00;12.60;99.90
5802;DHT22;2927;49.366;8.530;2023-10-31T15:25:26;12.60;99.90
5802;DHT22;2927;49.366;8.530;2023-10-31T15:27:51;12.60;99.90
5802;DHT22;2927;49.366;8.530;2023-10-31T15:30:17;12.60;99.90
5802;DHT22;2927;49.366;8.530;2023-10-31T15:32:43;12.60;99.90
5802;DHT22;2927;49.366;8.530;2023-10-31T15:35:08;12.60;99.90
5802;DHT22;2927;49.366;8.530;2023-10-31T15:37:35;12.60;99.90
5802;DHT22;2927;49.366;8.530;2023-10-31T15:40:01;12.60;99.90
5802;DHT22;2927;49.366;8.530;2023-10-31T15:42:27;12.50;99.90
5802;DHT22;2927;49.366;8.530;2023-10-31T15:44:53;12.60;99.90
5802;DHT22;2927;49.366;8.530;2023-10-31T15:47:21;12.60;99.90
5802;DHT22;2927;49.366;8.530;2023-10-31T15:49:47;12.50;99.90
5802;DHT22;2927;49.366;8.530;2023-10-31T15:52:12;12.50;99.90
5802;DHT22;2927;49.366;8.530;2023-10-31T15:54:38;12.50;99.90
5802;DHT22;2927;49.366;8.530;2023-10-31T15:57:04;12.50;99.90
5802;DHT22;2927;49.366;8.530;2023-10-31T15:59:30;12.50;99.90
5802;DHT22;2927;49.366;8.530;2023-10-31T16:01:55;12.40;99.90
5802;DHT22;2927;49.366;8.530;2023-10-31T16:04:21;12.40;99.90
5802;DHT22;2927;49.366;8.530;2023-10-31T16:06:49;12.30;99.90
5802;DHT22;2927;49.366;8.530;2023-10-31T16:09:14;12.30;99.90
5802;DHT22;2927;49.366;8.530;2023-10-31T16:11:40;12.30;99.90